createdAt,value
2022-10-25T00:01:36.949Z,100.00
2022-10-25T00:04:04.553Z,100.00
2022-10-25T00:06:31.916Z,100.00
2022-10-25T00:09:00.873Z,100.00
2022-10-25T00:11:30.121Z,100.00
2022-10-25T00:14:00.032Z,100.00
2022-10-25T00:16:28.945Z,100.00
2022-10-25T00:18:56.304Z,100.00
2022-10-25T00:21:24.120Z,100.00
2022-10-25T00:23:51.964Z,100.00
2022-10-25T00:26:21.226Z,100.00
2022-10-25T00:28:48.673Z,100.00
2022-10-25T00:31:17.344Z,100.00
2022-10-25T00:33:45.433Z,100.00
2022-10-25T00:36:14.117Z,100.00
2022-10-25T00:38:41.466Z,100.00
2022-10-25T00:41:09.888Z,100.00
2022-10-25T00:43:40.441Z,100.00
2022-10-25T00:46:12.279Z,100.00
2022-10-25T00:48:39.814Z,100.00
2022-10-25T00:51:07.265Z,100.00
2022-10-25T00:53:36.249Z,100.00
2022-10-25T00:56:05.292Z,100.00
2022-10-25T00:58:35.376Z,100.00
2022-10-25T01:01:05.442Z,100.00
2022-10-25T01:03:32.948Z,100.00
2022-10-25T01:06:00.671Z,100.00
2022-10-25T01:08:28.070Z,100.00
2022-10-25T01:10:55.393Z,100.00
2022-10-25T01:13:22.932Z,100.00
2022-10-25T01:15:58.769Z,100.00
2022-10-25T01:18:35.537Z,100.00
2022-10-25T01:21:31.945Z,100.00
2022-10-25T01:24:16.076Z,100.00
2022-10-25T01:27:16.782Z,100.00
2022-10-25T01:30:12.221Z,100.00
2022-10-25T01:32:43.420Z,100.00
2022-10-25T01:35:17.457Z,100.00
2022-10-25T01:37:54.798Z,100.00
2022-10-25T01:40:24.871Z,100.00
2022-10-25T01:42:59.559Z,100.00
2022-10-25T01:45:29.547Z,100.00
2022-10-25T01:48:00.785Z,100.00
2022-10-25T01:50:30.892Z,100.00
2022-10-25T01:52:58.270Z,100.00
2022-10-25T01:55:28.851Z,100.00
2022-10-25T01:58:08.788Z,100.00
2022-10-25T02:00:42.214Z,100.00
2022-10-25T02:03:22.484Z,100.00
2022-10-25T02:06:01.036Z,100.00
2022-10-25T02:08:34.453Z,100.00
2022-10-25T02:11:07.378Z,100.00
2022-10-25T02:13:43.780Z,100.00
2022-10-25T02:16:13.340Z,100.00
2022-10-25T02:18:45.210Z,100.00
2022-10-25T02:21:13.560Z,100.00
2022-10-25T02:23:41.521Z,100.00
2022-10-25T02:26:10.674Z,100.00
2022-10-25T02:28:39.350Z,100.00
2022-10-25T02:31:09.621Z,100.00
2022-10-25T02:33:39.196Z,100.00
2022-10-25T02:36:14.552Z,100.00
2022-10-25T02:38:42.800Z,100.00
2022-10-25T02:41:10.357Z,100.00
2022-10-25T02:43:37.709Z,100.00
2022-10-25T02:46:08.474Z,100.00
2022-10-25T02:48:36.080Z,100.00
2022-10-25T02:51:03.633Z,100.00
2022-10-25T02:53:33.059Z,100.00
2022-10-25T02:56:01.752Z,100.00
2022-10-25T02:58:31.578Z,100.00
2022-10-25T03:00:59.621Z,100.00
2022-10-25T03:03:27.582Z,100.00
2022-10-25T03:05:55.099Z,100.00
2022-10-25T03:08:22.694Z,100.00
2022-10-25T03:10:51.706Z,100.00
2022-10-25T03:13:19.092Z,100.00
2022-10-25T03:15:46.825Z,100.00
2022-10-25T03:18:15.184Z,100.00
2022-10-25T03:20:42.842Z,100.00
2022-10-25T03:23:10.462Z,100.00
2022-10-25T03:25:37.968Z,100.00
2022-10-25T03:28:07.134Z,100.00
2022-10-25T03:30:35.209Z,100.00
2022-10-25T03:33:02.767Z,100.00
2022-10-25T03:35:30.138Z,100.00
2022-10-25T03:37:57.465Z,100.00
2022-10-25T03:40:24.872Z,100.00
2022-10-25T03:42:52.272Z,100.00
2022-10-25T03:45:21.217Z,100.00
2022-10-25T03:47:48.856Z,100.00
2022-10-25T03:50:16.565Z,100.00
2022-10-25T03:52:43.956Z,100.00
2022-10-25T03:55:11.434Z,100.00
2022-10-25T03:57:38.757Z,100.00
2022-10-25T04:00:06.810Z,100.00
2022-10-25T04:02:40.340Z,100.00
2022-10-25T04:05:08.341Z,100.00
2022-10-25T04:07:35.655Z,100.00
2022-10-25T04:10:03.049Z,100.00
2022-10-25T04:12:30.390Z,100.00
2022-10-25T04:14:57.749Z,100.00
2022-10-25T04:17:25.124Z,100.00
2022-10-25T04:19:53.773Z,100.00
2022-10-25T04:22:21.093Z,100.00
2022-10-25T04:24:48.416Z,100.00
2022-10-25T04:27:15.751Z,100.00
2022-10-25T04:29:43.082Z,100.00
2022-10-25T04:32:10.561Z,100.00
2022-10-25T04:34:37.966Z,100.00
2022-10-25T04:37:06.648Z,100.00
2022-10-25T04:39:34.085Z,100.00
2022-10-25T04:42:01.436Z,100.00
2022-10-25T04:44:31.088Z,100.00
2022-10-25T04:46:58.397Z,100.00
2022-10-25T04:49:25.757Z,100.00
2022-10-25T04:51:53.084Z,100.00
2022-10-25T04:54:21.717Z,100.00
2022-10-25T04:56:49.047Z,100.00
2022-10-25T04:59:16.372Z,100.00
2022-10-25T05:01:43.792Z,100.00
2022-10-25T05:04:11.248Z,100.00
2022-10-25T05:06:38.593Z,100.00
2022-10-25T05:09:05.933Z,100.00
2022-10-25T05:11:34.619Z,100.00
2022-10-25T05:14:02.012Z,100.00
2022-10-25T05:16:29.415Z,100.00
2022-10-25T05:18:56.730Z,100.00
2022-10-25T05:21:28.281Z,100.00
2022-10-25T05:24:00.507Z,100.00
2022-10-25T05:26:30.266Z,100.00
2022-10-25T05:28:59.263Z,100.00
2022-10-25T05:31:27.701Z,100.00
2022-10-25T05:33:57.600Z,100.00
2022-10-25T05:36:25.249Z,100.00
2022-10-25T05:38:52.853Z,100.00
2022-10-25T05:41:20.483Z,100.00
2022-10-25T05:43:47.930Z,100.00
2022-10-25T05:46:21.703Z,100.00
2022-10-25T05:48:50.037Z,100.00
2022-10-25T05:51:33.343Z,100.00
2022-10-25T05:54:02.569Z,100.00
2022-10-25T05:56:31.291Z,100.00
2022-10-25T05:58:58.876Z,100.00
2022-10-25T06:01:27.813Z,100.00
2022-10-25T06:03:56.342Z,100.00
2022-10-25T06:06:24.320Z,100.00
2022-10-25T06:08:56.743Z,100.00
2022-10-25T06:11:24.735Z,100.00
2022-10-25T06:13:52.072Z,100.00
2022-10-25T06:16:20.706Z,100.00
2022-10-25T06:18:49.391Z,100.00
2022-10-25T06:21:18.453Z,100.00
2022-10-25T06:23:46.400Z,100.00
2022-10-25T06:26:15.654Z,100.00
2022-10-25T06:28:43.320Z,100.00
2022-10-25T06:31:12.297Z,100.00
2022-10-25T06:33:39.899Z,100.00
2022-10-25T06:36:13.174Z,100.00
2022-10-25T06:38:40.753Z,100.00
2022-10-25T06:41:11.204Z,100.00
2022-10-25T06:43:38.857Z,100.00
2022-10-25T06:46:07.229Z,100.00
2022-10-25T06:48:34.676Z,100.00
2022-10-25T06:51:02.987Z,100.00
2022-10-25T06:53:31.929Z,100.00
2022-10-25T06:56:04.724Z,100.00
2022-10-25T06:58:34.422Z,100.00
2022-10-25T07:01:03.400Z,100.00
2022-10-25T07:03:34.941Z,100.00
2022-10-25T07:06:03.321Z,100.00
2022-10-25T07:08:31.976Z,100.00
2022-10-25T07:10:59.575Z,100.00
2022-10-25T07:13:27.034Z,100.00
2022-10-25T07:15:54.485Z,100.00
2022-10-25T07:18:21.840Z,100.00
2022-10-25T07:20:50.449Z,100.00
2022-10-25T07:25:52.860Z,100.00
2022-10-25T07:28:20.245Z,100.00
2022-10-25T07:30:48.353Z,100.00
2022-10-25T07:33:16.447Z,100.00
2022-10-25T07:35:58.692Z,100.00
2022-10-25T07:38:33.245Z,100.00
2022-10-25T07:41:01.983Z,100.00
2022-10-25T07:43:30.121Z,100.00
2022-10-25T08:26:14.353Z,99.56
2022-10-25T08:28:41.688Z,99.58
2022-10-25T08:31:10.405Z,100.00
2022-10-25T08:33:37.952Z,99.69
2022-10-25T08:36:05.659Z,99.16
2022-10-25T08:38:33.049Z,98.15
2022-10-25T08:41:06.902Z,98.90
2022-10-25T08:43:50.932Z,98.36
2022-10-25T08:46:21.364Z,96.49
2022-10-25T08:48:52.428Z,97.07
2022-10-25T08:51:27.744Z,96.77
2022-10-25T09:28:25.437Z,96.48
2022-10-25T09:30:54.000Z,94.17
2022-10-25T09:33:28.219Z,92.16
2022-10-25T09:35:56.309Z,91.86
2022-10-25T09:38:29.174Z,91.44
2022-10-25T09:46:14.893Z,90.87
2022-10-25T09:48:49.309Z,89.86
2022-10-25T09:51:20.304Z,91.63
2022-10-25T09:53:48.049Z,92.00
2022-10-25T09:56:17.236Z,91.88
2022-10-25T09:58:47.017Z,91.04
2022-10-25T10:01:19.037Z,90.31
2022-10-25T10:03:52.293Z,90.04
2022-10-25T10:06:24.029Z,90.92
2022-10-25T10:08:52.867Z,89.99
2022-10-25T10:11:21.076Z,90.48
2022-10-25T10:13:49.953Z,89.36
2022-10-25T10:16:21.864Z,88.42
2022-10-25T10:18:50.694Z,88.41
2022-10-25T10:21:20.082Z,85.04
2022-10-25T10:23:53.354Z,83.74
2022-10-25T10:26:24.773Z,84.82
2022-10-25T10:29:07.767Z,84.48
2022-10-25T10:31:37.864Z,85.17
2022-10-25T10:34:08.343Z,87.29
2022-10-25T10:36:36.246Z,85.57
2022-10-25T10:39:21.035Z,85.26
2022-10-25T10:42:02.903Z,85.21
2022-10-25T10:44:34.217Z,84.03
2022-10-25T10:50:25.716Z,84.66
2022-10-25T10:52:59.795Z,83.92
2022-10-25T10:55:30.853Z,83.45
2022-10-25T10:58:03.732Z,81.30
2022-10-25T11:00:33.085Z,82.40
2022-10-25T11:03:00.715Z,83.96
2022-10-25T11:05:30.888Z,83.36
2022-10-25T11:08:00.009Z,82.57
2022-10-25T11:12:16.704Z,83.90
2022-10-25T11:14:44.081Z,86.11
2022-10-25T11:17:14.693Z,86.50
2022-10-25T11:20:01.810Z,86.00
2022-10-25T11:25:34.952Z,84.81
2022-10-25T11:28:15.581Z,83.76
2022-10-25T11:30:50.435Z,84.64
2022-10-25T11:33:28.119Z,84.98
2022-10-25T11:36:03.820Z,82.87
2022-10-25T11:38:41.658Z,81.13
2022-10-25T11:41:19.112Z,80.23
2022-10-25T11:43:57.223Z,81.38
2022-10-25T11:46:31.493Z,81.99
2022-10-25T11:49:13.749Z,81.90
2022-10-25T11:51:46.937Z,83.56
2022-10-25T11:54:21.351Z,84.85
2022-10-25T11:56:55.545Z,88.27
2022-10-25T11:59:26.260Z,86.71
2022-10-25T12:02:00.277Z,87.49
2022-10-25T12:04:45.747Z,86.94
2022-10-25T12:07:16.921Z,87.47
2022-10-25T12:09:52.237Z,87.18
2022-10-25T12:12:23.250Z,85.71
2022-10-25T12:14:55.629Z,84.42
2022-10-25T12:17:25.940Z,85.56
2022-10-25T12:19:55.603Z,85.21
2022-10-25T12:22:25.821Z,84.63
2022-10-25T12:24:57.585Z,84.55
2022-10-25T12:27:25.652Z,84.29
2022-10-25T12:29:58.121Z,84.57
2022-10-25T12:32:29.940Z,85.97
2022-10-25T12:34:58.698Z,85.76
2022-10-25T12:37:31.761Z,87.45
2022-10-25T12:39:59.246Z,87.83
2022-10-25T12:42:30.697Z,87.73
2022-10-25T12:45:12.064Z,87.36
2022-10-25T12:47:47.573Z,86.84
2022-10-25T12:50:41.720Z,85.82
2022-10-25T12:53:32.698Z,85.76
2022-10-25T12:56:03.357Z,86.29
2022-10-25T12:58:52.685Z,84.60
2022-10-25T13:01:34.977Z,82.65
2022-10-25T13:04:17.614Z,81.97
2022-10-25T13:06:45.665Z,79.47
2022-10-25T13:09:14.780Z,79.69
2022-10-25T13:11:44.153Z,79.88
2022-10-25T13:14:20.542Z,80.29
2022-10-25T13:16:49.280Z,79.89
2022-10-25T13:19:49.366Z,80.13
2022-10-25T13:22:39.456Z,78.78
2022-10-25T13:25:17.302Z,78.91
2022-10-25T13:28:17.905Z,79.69
2022-10-25T13:30:45.297Z,79.58
2022-10-25T13:33:33.266Z,78.73
2022-10-25T13:36:05.177Z,78.30
2022-10-25T13:38:39.011Z,79.89
2022-10-25T13:41:13.929Z,80.89
2022-10-25T13:44:01.377Z,82.15
2022-10-25T13:46:32.516Z,81.53
2022-10-25T13:49:02.355Z,81.59
2022-10-25T13:51:31.211Z,81.43
2022-10-25T13:54:02.670Z,80.94
2022-10-25T13:56:37.961Z,82.63
2022-10-25T13:59:05.454Z,82.13
2022-10-25T14:01:56.808Z,82.60
2022-10-25T14:04:44.005Z,84.27
2022-10-25T14:07:46.621Z,85.76
2022-10-25T14:10:24.145Z,84.64
2022-10-25T14:12:53.441Z,85.79
2022-10-25T14:15:31.425Z,85.17
2022-10-25T14:17:59.213Z,84.60
2022-10-25T14:20:29.690Z,86.12
2022-10-25T14:23:00.194Z,86.39
2022-10-25T14:25:34.084Z,87.21
2022-10-25T14:28:06.689Z,87.25
2022-10-25T14:30:38.049Z,86.96
2022-10-25T14:33:07.436Z,87.61
2022-10-25T14:35:39.153Z,86.50
2022-10-25T14:38:15.553Z,86.45
2022-10-25T14:40:42.909Z,85.83
2022-10-25T14:43:22.486Z,86.42
2022-10-25T14:45:57.017Z,86.67
2022-10-25T14:48:24.529Z,86.01
2022-10-25T14:50:53.781Z,86.48
2022-10-25T14:53:21.315Z,86.02
2022-10-25T14:55:53.628Z,85.57
2022-10-25T14:58:21.641Z,86.19
2022-10-25T15:00:54.302Z,86.93
2022-10-25T15:03:22.022Z,87.83
2022-10-25T15:05:49.479Z,88.22
2022-10-25T15:08:21.186Z,88.73
2022-10-25T15:10:51.233Z,89.74
2022-10-25T15:13:22.921Z,90.18
2022-10-25T15:15:51.834Z,89.82
2022-10-25T15:18:28.535Z,89.03
2022-10-25T15:21:06.479Z,91.03
2022-10-25T15:23:35.622Z,90.08
2022-10-25T15:26:26.998Z,90.52
2022-10-25T15:28:55.857Z,90.00
2022-10-25T15:31:24.994Z,89.28
2022-10-25T15:33:59.970Z,88.80
2022-10-25T15:36:28.913Z,87.98
2022-10-25T15:39:11.432Z,88.48
2022-10-25T15:41:40.189Z,88.18
2022-10-25T15:44:07.575Z,87.46
2022-10-25T15:46:37.794Z,88.39
2022-10-25T15:49:08.087Z,88.60
2022-10-25T15:51:37.717Z,88.04
2022-10-25T15:54:06.684Z,89.78
2022-10-25T15:56:34.101Z,90.14
2022-10-25T15:59:02.621Z,90.36
2022-10-25T16:01:30.374Z,90.27
2022-10-25T16:03:57.805Z,91.42
2022-10-25T16:06:26.888Z,92.27
2022-10-25T16:08:54.298Z,92.03
2022-10-25T16:11:22.957Z,93.25
2022-10-25T16:13:52.805Z,94.12
2022-10-25T16:16:39.413Z,94.77
2022-10-25T16:19:07.944Z,95.31
2022-10-25T16:21:35.304Z,95.15
2022-10-25T16:24:02.669Z,96.34
2022-10-25T16:26:35.205Z,95.22
2022-10-25T16:29:02.701Z,95.87
2022-10-25T16:31:30.072Z,96.34
2022-10-25T16:33:57.410Z,96.28
2022-10-25T16:36:24.797Z,95.72
2022-10-25T16:38:52.213Z,95.46
2022-10-25T16:41:24.912Z,95.17
2022-10-25T16:43:53.625Z,95.73
2022-10-25T16:46:21.045Z,97.27
2022-10-25T16:48:49.159Z,96.60
2022-10-25T16:51:18.112Z,97.33
2022-10-25T16:53:46.981Z,96.66
2022-10-25T16:56:14.979Z,96.99
2022-10-25T16:58:42.901Z,97.48
2022-10-25T17:01:21.981Z,97.03
2022-10-25T17:03:49.959Z,97.22
2022-10-25T17:06:39.764Z,97.33
2022-10-25T17:09:05.254Z,98.45
2022-10-25T17:11:32.589Z,98.89
2022-10-25T17:14:00.026Z,98.32
2022-10-25T17:16:28.677Z,98.87
2022-10-25T17:18:56.193Z,99.55
2022-10-25T17:21:23.767Z,99.61
2022-10-25T17:23:51.169Z,99.56
2022-10-25T17:26:18.576Z,99.52
2022-10-25T17:28:45.912Z,99.09
2022-10-25T17:31:15.696Z,99.31
2022-10-25T17:33:44.678Z,98.83
2022-10-25T17:36:13.866Z,99.08
2022-10-25T17:38:41.304Z,100.00
2022-10-25T17:41:10.545Z,100.00
2022-10-25T17:43:38.800Z,99.51
2022-10-25T17:46:10.256Z,99.75
2022-10-25T17:48:37.715Z,99.22
2022-10-25T17:51:08.289Z,98.94
2022-10-25T17:53:36.108Z,98.47
2022-10-25T17:56:10.933Z,98.64
2022-10-25T17:58:38.338Z,98.31
2022-10-25T18:01:06.256Z,98.38
2022-10-25T18:03:33.749Z,99.26
2022-10-25T18:06:01.413Z,98.85
2022-10-25T18:08:30.244Z,99.71
2022-10-25T18:10:57.679Z,99.20
2022-10-25T18:13:26.899Z,99.14
2022-10-25T18:15:54.401Z,99.79
2022-10-25T18:18:21.859Z,100.00
2022-10-25T18:20:51.518Z,100.00
2022-10-25T18:23:19.070Z,100.00
2022-10-25T18:25:52.771Z,100.00
2022-10-25T18:28:20.303Z,100.00
2022-10-25T18:30:51.978Z,100.00
2022-10-25T18:33:23.673Z,100.00
2022-10-25T18:35:58.054Z,100.00
2022-10-25T18:38:25.865Z,100.00
2022-10-25T18:40:55.022Z,100.00
2022-10-25T18:43:23.440Z,100.00
2022-10-25T18:45:51.782Z,100.00
2022-10-25T18:48:19.889Z,100.00
2022-10-25T18:50:48.787Z,100.00
2022-10-25T18:53:19.119Z,100.00
2022-10-25T18:55:48.689Z,100.00
2022-10-25T18:58:19.484Z,100.00
2022-10-25T19:00:49.407Z,100.00
2022-10-25T19:03:18.829Z,100.00
2022-10-25T19:05:48.323Z,100.00
2022-10-25T19:08:17.913Z,100.00
2022-10-25T19:10:47.696Z,100.00
2022-10-25T19:13:20.439Z,100.00
2022-10-25T19:15:50.415Z,100.00
2022-10-25T19:18:20.158Z,100.00
2022-10-25T19:20:49.691Z,100.00
2022-10-25T19:23:19.466Z,100.00
2022-10-25T19:25:49.099Z,100.00
2022-10-25T19:28:20.113Z,100.00
2022-10-25T19:30:49.744Z,100.00
2022-10-25T19:33:19.306Z,100.00
2022-10-25T19:35:48.898Z,100.00
2022-10-25T19:38:21.901Z,100.00
2022-10-25T19:40:54.185Z,100.00
2022-10-25T19:43:25.633Z,100.00
2022-10-25T19:45:58.766Z,100.00
2022-10-25T19:48:29.065Z,100.00
2022-10-25T19:50:58.694Z,100.00
2022-10-25T19:53:28.194Z,100.00
2022-10-25T19:56:01.087Z,100.00
2022-10-25T19:58:32.090Z,100.00
2022-10-25T20:01:07.135Z,100.00
2022-10-25T20:03:36.925Z,100.00
2022-10-25T20:06:09.281Z,100.00
2022-10-25T20:08:40.598Z,100.00
2022-10-25T20:11:11.662Z,100.00
2022-10-25T20:13:42.929Z,100.00
2022-10-25T20:16:17.375Z,100.00
2022-10-25T20:18:46.700Z,100.00
2022-10-25T20:21:17.253Z,100.00
2022-10-25T20:23:50.542Z,100.00
2022-10-25T20:26:22.120Z,100.00
2022-10-25T20:28:54.258Z,100.00
2022-10-25T20:31:24.541Z,100.00
2022-10-25T20:33:54.164Z,100.00
2022-10-25T20:36:23.753Z,100.00
2022-10-25T20:38:53.331Z,100.00
2022-10-25T20:41:23.834Z,100.00
2022-10-25T20:43:55.222Z,100.00
2022-10-25T20:46:25.030Z,100.00
2022-10-25T20:48:53.524Z,100.00
2022-10-25T20:51:21.286Z,100.00
2022-10-25T20:53:54.551Z,100.00
2022-10-25T20:56:22.619Z,100.00
2022-10-25T20:58:50.106Z,100.00
2022-10-25T21:01:19.452Z,100.00
2022-10-25T21:03:47.025Z,100.00
2022-10-25T21:06:14.517Z,100.00
2022-10-25T21:08:42.091Z,100.00
2022-10-25T21:11:12.685Z,100.00
2022-10-25T21:13:40.521Z,100.00
2022-10-25T21:16:08.597Z,100.00
2022-10-25T21:18:37.555Z,100.00
2022-10-25T21:21:06.883Z,100.00
2022-10-25T21:23:34.333Z,100.00
2022-10-25T21:26:02.878Z,100.00
2022-10-25T21:28:33.376Z,100.00
2022-10-25T21:31:01.697Z,100.00
2022-10-25T21:33:31.022Z,100.00
2022-10-25T21:36:05.054Z,99.82
2022-10-25T21:38:32.443Z,99.60
2022-10-25T21:41:07.380Z,100.00
2022-10-25T21:43:34.777Z,100.00
2022-10-25T21:46:05.146Z,100.00
2022-10-25T21:48:32.558Z,99.89
2022-10-25T21:50:59.878Z,99.97
2022-10-25T21:53:28.559Z,100.00
2022-10-25T21:56:07.096Z,100.00
2022-10-25T21:58:34.518Z,100.00
2022-10-25T22:01:01.879Z,100.00
2022-10-25T22:03:30.544Z,99.17
2022-10-25T22:05:58.180Z,99.23
2022-10-25T22:08:25.537Z,98.65
2022-10-25T22:13:31.657Z,98.32
2022-10-25T22:16:00.428Z,98.76
2022-10-25T22:18:28.149Z,98.03
2022-10-25T22:20:57.256Z,98.00
2022-10-25T22:23:26.305Z,98.30
2022-10-25T22:25:53.864Z,98.51
2022-10-25T22:28:22.570Z,99.18
2022-10-25T22:30:50.062Z,100.00
2022-10-25T22:33:17.435Z,99.72
2022-10-25T22:35:44.754Z,99.70
2022-10-25T22:38:12.093Z,100.00
2022-10-25T22:40:39.426Z,100.00
2022-10-25T22:43:06.757Z,100.00
2022-10-25T22:45:36.295Z,100.00
2022-10-25T22:48:03.667Z,100.00
2022-10-25T22:50:31.009Z,100.00
2022-10-25T22:52:58.351Z,100.00
2022-10-25T22:55:25.692Z,100.00
2022-10-25T22:57:54.210Z,100.00
2022-10-25T23:00:21.646Z,100.00
2022-10-25T23:02:50.566Z,99.71
2022-10-25T23:05:18.082Z,99.39
2022-10-25T23:07:45.425Z,99.32
2022-10-25T23:10:14.347Z,99.46
2022-10-25T23:12:41.729Z,99.22
2022-10-25T23:15:09.570Z,99.15
2022-10-25T23:17:36.948Z,99.80
2022-10-25T23:20:06.757Z,100.00
2022-10-25T23:22:34.193Z,99.73
2022-10-25T23:25:01.567Z,100.00
2022-10-25T23:27:29.060Z,100.00
2022-10-25T23:29:56.413Z,100.00
2022-10-25T23:32:23.797Z,100.00
2022-10-25T23:34:52.596Z,100.00
2022-10-25T23:37:23.721Z,100.00
2022-10-25T23:39:53.884Z,100.00
2022-10-25T23:42:21.212Z,100.00
2022-10-25T23:44:48.514Z,100.00
2022-10-25T23:47:15.845Z,100.00
2022-10-25T23:49:43.157Z,100.00
2022-10-25T23:52:10.490Z,100.00
2022-10-25T23:54:39.133Z,100.00
2022-10-25T23:57:06.468Z,100.00
2022-10-25T23:59:33.818Z,100.00
